createdAt,value
2023-01-06T00:00:28.174Z,44.41
2023-01-06T00:01:28.116Z,39.02
2023-01-06T00:02:28.122Z,43.85
2023-01-06T00:03:28.059Z,45.77
2023-01-06T00:04:28.103Z,43.14
2023-01-06T00:05:28.037Z,52.52
2023-01-06T00:06:28.053Z,49.68
2023-01-06T00:07:28.023Z,46.67
2023-01-06T00:08:28.013Z,57.23
2023-01-06T00:09:28.009Z,44.47
2023-01-06T00:10:27.996Z,38.43
2023-01-06T00:11:28.018Z,42.17
2023-01-06T00:12:27.992Z,39.85
2023-01-06T00:13:27.974Z,45.59
2023-01-06T00:14:27.968Z,48.03
2023-01-06T00:15:28.011Z,39.13
2023-01-06T00:16:28.055Z,48.79
2023-01-06T00:17:27.948Z,47.59
2023-01-06T00:18:27.940Z,42.97
2023-01-06T00:19:27.946Z,43.66
2023-01-06T00:20:27.924Z,38.22
2023-01-06T00:21:27.940Z,42.04
2023-01-06T00:22:27.912Z,45.79
2023-01-06T00:23:27.909Z,40.99
2023-01-06T00:24:27.900Z,45.63
2023-01-06T00:25:27.893Z,47.75
2023-01-06T00:26:27.905Z,40.66
2023-01-06T00:27:27.903Z,38.54
2023-01-06T00:28:27.865Z,40.88
2023-01-06T00:29:27.859Z,40.26
2023-01-06T00:30:27.858Z,44.31
2023-01-06T00:31:27.914Z,52.31
2023-01-06T00:32:27.920Z,39.63
2023-01-06T00:33:27.840Z,38.76
2023-01-06T00:34:27.816Z,49.40
2023-01-06T00:35:27.810Z,43.23
2023-01-06T00:36:27.827Z,41.69
2023-01-06T00:37:27.795Z,44.10
2023-01-06T00:38:27.816Z,50.29
2023-01-06T00:39:27.786Z,45.38
2023-01-06T00:40:27.763Z,51.44
2023-01-06T00:41:27.788Z,39.34
2023-01-06T00:42:27.756Z,50.26
2023-01-06T00:43:27.743Z,53.59
2023-01-06T00:44:27.743Z,51.26
2023-01-06T00:45:27.730Z,42.77
2023-01-06T00:46:27.833Z,58.73
2023-01-06T00:47:27.713Z,42.59
2023-01-06T00:48:27.778Z,56.84
2023-01-06T00:49:27.701Z,44.15
2023-01-06T00:50:27.693Z,51.61
2023-01-06T00:51:27.724Z,46.28
2023-01-06T00:52:27.679Z,40.61
2023-01-06T00:53:27.673Z,43.62
2023-01-06T00:54:27.664Z,45.67
2023-01-06T00:55:27.647Z,40.40
2023-01-06T00:56:27.644Z,47.95
2023-01-06T00:57:27.648Z,49.17
2023-01-06T00:58:28.647Z,50.00
2023-01-06T00:59:27.627Z,42.85
2023-01-06T01:00:27.631Z,56.32
2023-01-06T01:01:27.738Z,44.85
2023-01-06T01:02:27.842Z,43.72
2023-01-06T01:03:27.596Z,45.58
2023-01-06T01:04:27.671Z,56.65
2023-01-06T01:05:27.583Z,40.21
2023-01-06T01:06:27.570Z,40.67
2023-01-06T01:07:27.589Z,48.32
2023-01-06T01:08:27.553Z,49.03
2023-01-06T01:09:27.546Z,50.14
2023-01-06T01:10:27.535Z,57.39
2023-01-06T01:11:27.530Z,56.07
2023-01-06T01:12:27.553Z,39.76
2023-01-06T01:13:27.516Z,47.27
2023-01-06T01:14:27.504Z,53.56
2023-01-06T01:15:27.503Z,45.85
2023-01-06T01:16:27.493Z,51.40
2023-01-06T01:17:27.508Z,45.12
2023-01-06T01:18:27.485Z,42.68
2023-01-06T01:19:27.466Z,46.51
2023-01-06T01:20:27.539Z,55.12
2023-01-06T01:21:27.493Z,47.16
2023-01-06T01:22:27.474Z,55.15
2023-01-06T01:23:27.431Z,41.61
2023-01-06T01:24:28.433Z,55.61
2023-01-06T01:25:27.432Z,45.68
2023-01-06T01:26:27.416Z,48.05
2023-01-06T01:27:27.430Z,50.50
2023-01-06T01:28:27.398Z,57.00
2023-01-06T01:29:27.410Z,47.57
2023-01-06T01:30:27.385Z,48.56
2023-01-06T01:31:27.433Z,55.35
2023-01-06T01:32:27.391Z,50.58
2023-01-06T01:33:27.364Z,50.02
2023-01-06T01:34:27.348Z,54.29
2023-01-06T01:35:27.359Z,57.15
2023-01-06T01:36:27.405Z,50.38
2023-01-06T01:37:27.375Z,49.54
2023-01-06T01:38:27.317Z,50.77
2023-01-06T01:39:27.313Z,58.39
2023-01-06T01:40:27.306Z,46.47
2023-01-06T01:41:27.299Z,46.36
2023-01-06T01:42:27.313Z,47.29
2023-01-06T01:43:27.281Z,46.40
2023-01-06T01:44:27.276Z,45.58
2023-01-06T01:45:27.260Z,44.92
2023-01-06T01:46:27.312Z,41.99
2023-01-06T01:47:27.274Z,56.63
2023-01-06T01:48:27.242Z,39.90
2023-01-06T01:49:27.244Z,39.81
2023-01-06T01:50:27.238Z,48.38
2023-01-06T01:51:27.216Z,54.60
2023-01-06T01:52:27.328Z,42.26
2023-01-06T01:53:27.213Z,51.83
2023-01-06T01:54:27.199Z,39.75
2023-01-06T01:55:27.210Z,56.02
2023-01-06T01:56:27.177Z,43.54
2023-01-06T01:57:27.193Z,48.07
2023-01-06T01:58:27.166Z,51.45
2023-01-06T01:59:27.159Z,44.68
2023-01-06T02:00:27.149Z,54.97
2023-01-06T02:01:27.322Z,47.93
2023-01-06T02:02:27.307Z,39.48
2023-01-06T02:03:27.122Z,39.81
2023-01-06T02:04:27.132Z,59.92
2023-01-06T02:05:27.112Z,40.41
2023-01-06T02:06:27.113Z,38.27
2023-01-06T02:07:27.119Z,51.64
2023-01-06T02:08:27.178Z,38.86
2023-01-06T02:09:27.083Z,39.07
2023-01-06T02:10:27.094Z,52.08
2023-01-06T02:11:27.065Z,64.29
2023-01-06T02:12:27.200Z,45.58
2023-01-06T02:13:27.053Z,39.64
2023-01-06T02:14:27.049Z,39.11
2023-01-06T02:15:27.034Z,43.30
2023-01-06T02:16:27.027Z,38.75
2023-01-06T02:17:27.048Z,38.85
2023-01-06T02:18:27.040Z,38.88
2023-01-06T02:19:27.001Z,44.73
2023-01-06T02:20:26.999Z,54.87
2023-01-06T02:21:26.999Z,49.32
2023-01-06T02:22:27.010Z,52.17
2023-01-06T02:23:26.977Z,61.10
2023-01-06T02:24:27.049Z,48.40
2023-01-06T02:25:26.956Z,41.30
2023-01-06T02:26:27.950Z,58.08
2023-01-06T02:27:26.973Z,52.01
2023-01-06T02:28:26.933Z,39.69
2023-01-06T02:29:26.929Z,45.68
2023-01-06T02:30:26.917Z,61.65
2023-01-06T02:31:26.963Z,56.76
2023-01-06T02:32:26.928Z,40.68
2023-01-06T02:33:26.898Z,46.76
2023-01-06T02:34:26.892Z,63.48
2023-01-06T02:35:26.879Z,44.73
2023-01-06T02:36:26.872Z,45.45
2023-01-06T02:37:26.887Z,47.24
2023-01-06T02:38:26.857Z,54.32
2023-01-06T02:39:26.859Z,42.76
2023-01-06T02:40:26.913Z,52.24
2023-01-06T02:41:26.854Z,52.61
2023-01-06T02:42:26.851Z,52.21
2023-01-06T02:43:26.818Z,39.41
2023-01-06T02:44:26.812Z,39.41
2023-01-06T02:45:26.806Z,47.92
2023-01-06T02:46:26.863Z,49.63
2023-01-06T02:47:26.822Z,58.34
2023-01-06T02:48:26.776Z,47.61
2023-01-06T02:49:26.771Z,53.20
2023-01-06T02:50:26.772Z,44.25
2023-01-06T02:51:26.755Z,40.81
2023-01-06T02:52:26.771Z,41.46
2023-01-06T02:53:26.745Z,59.94
2023-01-06T02:54:26.737Z,47.91
2023-01-06T02:55:26.729Z,39.31
2023-01-06T02:56:26.797Z,38.67
2023-01-06T02:57:26.738Z,46.76
2023-01-06T02:58:26.706Z,44.74
2023-01-06T02:59:26.696Z,51.63
2023-01-06T03:00:26.687Z,49.87
2023-01-06T03:01:27.839Z,51.19
2023-01-06T03:02:26.748Z,40.49
2023-01-06T03:03:26.666Z,54.28
2023-01-06T03:04:26.699Z,46.14
2023-01-06T03:05:26.648Z,53.32
2023-01-06T03:06:27.645Z,52.53
2023-01-06T03:07:26.662Z,46.11
2023-01-06T03:08:26.637Z,47.63
2023-01-06T03:09:26.626Z,56.35
2023-01-06T03:10:26.616Z,57.12
2023-01-06T03:11:26.605Z,45.39
2023-01-06T03:12:26.703Z,46.97
2023-01-06T03:13:26.588Z,49.23
2023-01-06T03:14:26.581Z,51.89
2023-01-06T03:15:26.574Z,41.04
2023-01-06T03:16:26.643Z,43.97
2023-01-06T03:17:26.593Z,50.53
2023-01-06T03:18:26.547Z,43.35
2023-01-06T03:19:26.543Z,39.60
2023-01-06T03:20:26.536Z,42.19
2023-01-06T03:21:26.530Z,44.90
2023-01-06T03:22:26.540Z,49.88
2023-01-06T03:23:27.509Z,41.30
2023-01-06T03:24:26.512Z,54.63
2023-01-06T03:25:26.509Z,47.46
2023-01-06T03:26:26.495Z,57.57
2023-01-06T03:27:26.511Z,51.93
2023-01-06T03:28:26.546Z,53.84
2023-01-06T03:29:26.460Z,41.08
2023-01-06T03:30:26.455Z,51.01
2023-01-06T03:31:26.521Z,49.21
2023-01-06T03:32:26.460Z,46.69
2023-01-06T03:33:26.431Z,48.51
2023-01-06T03:34:26.422Z,49.22
2023-01-06T03:35:26.411Z,39.61
2023-01-06T03:36:26.409Z,49.19
2023-01-06T03:37:26.448Z,51.36
2023-01-06T03:38:26.390Z,52.10
2023-01-06T03:39:26.384Z,44.88
2023-01-06T03:40:26.373Z,48.70
2023-01-06T03:41:26.364Z,51.69
2023-01-06T03:42:35.962Z,53.80
2023-01-06T03:43:28.351Z,50.62
2023-01-06T03:44:26.412Z,40.84
2023-01-06T03:45:26.333Z,49.50
2023-01-06T03:46:26.329Z,54.87
2023-01-06T03:47:26.342Z,46.04
2023-01-06T03:48:26.306Z,55.14
2023-01-06T03:49:26.295Z,51.30
2023-01-06T03:50:26.290Z,48.39
2023-01-06T03:51:26.284Z,48.72
2023-01-06T03:52:26.301Z,52.92
2023-01-06T03:53:26.287Z,56.04
2023-01-06T03:54:26.265Z,57.34
2023-01-06T03:55:27.252Z,53.60
2023-01-06T03:56:26.254Z,52.80
2023-01-06T03:57:26.264Z,53.14
2023-01-06T03:58:26.227Z,43.61
2023-01-06T03:59:26.220Z,44.79
2023-01-06T04:00:26.309Z,49.15
2023-01-06T04:01:26.342Z,46.95
2023-01-06T04:02:26.243Z,60.09
2023-01-06T04:03:26.333Z,55.73
2023-01-06T04:04:26.180Z,43.51
2023-01-06T04:05:26.185Z,53.84
2023-01-06T04:06:26.162Z,56.80
2023-01-06T04:07:26.182Z,46.82
2023-01-06T04:08:26.145Z,53.47
2023-01-06T04:09:26.144Z,53.46
2023-01-06T04:10:26.130Z,50.87
2023-01-06T04:11:26.131Z,50.74
2023-01-06T04:12:26.145Z,57.20
2023-01-06T04:13:26.111Z,53.32
2023-01-06T04:14:26.105Z,54.31
2023-01-06T04:15:26.102Z,49.33
2023-01-06T04:16:26.271Z,61.97
2023-01-06T04:17:26.111Z,56.72
2023-01-06T04:18:26.074Z,60.54
2023-01-06T04:19:26.076Z,54.58
2023-01-06T04:20:26.077Z,56.87
2023-01-06T04:21:26.046Z,55.38
2023-01-06T04:22:26.071Z,53.12
2023-01-06T04:23:26.033Z,57.39
2023-01-06T04:24:26.025Z,54.43
2023-01-06T04:25:26.020Z,54.72
2023-01-06T04:26:26.013Z,50.92
2023-01-06T04:27:26.066Z,47.64
2023-01-06T04:28:25.993Z,59.37
2023-01-06T04:29:26.005Z,53.48
2023-01-06T04:30:25.977Z,59.93
2023-01-06T04:31:26.020Z,55.57
2023-01-06T04:32:26.041Z,53.31
2023-01-06T04:33:25.978Z,61.00
2023-01-06T04:34:25.961Z,58.99
2023-01-06T04:35:25.944Z,57.68
2023-01-06T04:36:25.935Z,53.02
2023-01-06T04:37:25.919Z,62.17
2023-01-06T04:38:25.946Z,56.19
2023-01-06T04:39:25.901Z,58.53
2023-01-06T04:40:25.896Z,57.38
2023-01-06T04:41:25.893Z,55.80
2023-01-06T04:42:25.881Z,60.58
2023-01-06T04:43:25.899Z,52.49
2023-01-06T04:44:25.863Z,54.46
2023-01-06T04:45:25.902Z,56.87
2023-01-06T04:46:25.848Z,57.64
2023-01-06T04:47:25.841Z,57.71
2023-01-06T04:48:25.963Z,54.64
2023-01-06T04:49:25.823Z,59.68
2023-01-06T04:50:25.815Z,57.01
2023-01-06T04:51:25.811Z,52.88
2023-01-06T04:52:25.800Z,52.23
2023-01-06T04:53:25.815Z,57.30
2023-01-06T04:54:25.784Z,57.13
2023-01-06T04:55:25.771Z,56.00
2023-01-06T04:56:26.897Z,59.77
2023-01-06T04:57:26.759Z,51.45
2023-01-06T04:58:25.776Z,58.00
2023-01-06T04:59:25.746Z,53.95
2023-01-06T05:00:25.736Z,53.59
2023-01-06T05:01:25.842Z,55.47
2023-01-06T05:02:25.730Z,56.26
2023-01-06T05:03:25.737Z,55.41
2023-01-06T05:04:26.201Z,54.52
2023-01-06T05:05:25.700Z,58.43
2023-01-06T05:06:25.698Z,57.42
2023-01-06T05:07:25.683Z,50.35
2023-01-06T05:08:25.701Z,56.14
2023-01-06T05:09:25.667Z,55.77
2023-01-06T05:10:25.661Z,55.49
2023-01-06T05:11:25.648Z,58.49
2023-01-06T05:12:25.657Z,58.93
2023-01-06T05:13:25.669Z,56.18
2023-01-06T05:14:25.650Z,54.91
2023-01-06T05:15:25.622Z,61.56
2023-01-06T05:16:25.682Z,57.44
2023-01-06T05:17:25.621Z,52.54
2023-01-06T05:18:25.622Z,56.89
2023-01-06T05:19:25.590Z,59.46
2023-01-06T05:20:25.676Z,54.91
2023-01-06T05:21:25.579Z,56.61
2023-01-06T05:22:25.569Z,55.94
2023-01-06T05:23:25.586Z,57.65
2023-01-06T05:24:25.571Z,61.90
2023-01-06T05:25:25.550Z,59.15
2023-01-06T05:26:25.540Z,58.07
2023-01-06T05:27:25.534Z,57.42
2023-01-06T05:28:25.553Z,58.46
2023-01-06T05:29:25.515Z,56.70
2023-01-06T05:30:25.504Z,58.73
2023-01-06T05:31:25.558Z,60.34
2023-01-06T05:32:25.491Z,54.04
2023-01-06T05:33:25.509Z,58.96
2023-01-06T05:34:25.478Z,55.62
2023-01-06T05:35:25.468Z,58.35
2023-01-06T05:36:25.535Z,56.58
2023-01-06T05:37:25.457Z,58.26
2023-01-06T05:38:25.477Z,54.92
2023-01-06T05:39:25.437Z,58.04
2023-01-06T05:40:25.431Z,56.94
2023-01-06T05:41:25.420Z,56.98
2023-01-06T05:42:25.418Z,55.67
2023-01-06T05:43:25.440Z,56.18
2023-01-06T05:44:25.401Z,57.63
2023-01-06T05:45:25.395Z,57.36
2023-01-06T05:46:25.390Z,60.18
2023-01-06T05:47:25.375Z,58.12
2023-01-06T05:48:25.369Z,57.97
2023-01-06T05:49:25.384Z,57.56
2023-01-06T05:50:25.349Z,55.90
2023-01-06T05:51:25.348Z,58.54
2023-01-06T05:52:25.433Z,53.48
2023-01-06T05:53:25.324Z,55.76
2023-01-06T05:54:25.347Z,57.43
2023-01-06T05:55:25.307Z,59.11
2023-01-06T05:56:25.308Z,58.86
2023-01-06T05:57:25.294Z,58.21
2023-01-06T05:58:25.286Z,54.22
2023-01-06T05:59:25.308Z,58.74
2023-01-06T06:00:25.265Z,56.49
2023-01-06T06:01:25.353Z,58.00
2023-01-06T06:02:25.275Z,58.32
2023-01-06T06:03:25.284Z,59.16
2023-01-06T06:04:25.273Z,56.85
2023-01-06T06:05:25.234Z,55.26
2023-01-06T06:06:25.220Z,58.19
2023-01-06T06:07:25.214Z,60.86
2023-01-06T06:08:25.293Z,58.05
2023-01-06T06:09:25.243Z,56.04
2023-01-06T06:10:25.208Z,58.64
2023-01-06T06:11:25.182Z,57.04
2023-01-06T06:12:25.175Z,56.21
2023-01-06T06:13:25.167Z,58.66
2023-01-06T06:14:25.188Z,53.68
2023-01-06T06:15:25.153Z,55.51
2023-01-06T06:16:25.177Z,56.32
2023-01-06T06:17:25.129Z,59.71
2023-01-06T06:18:25.129Z,58.37
2023-01-06T06:19:25.146Z,55.83
2023-01-06T06:20:25.112Z,55.34
2023-01-06T06:21:25.113Z,57.33
2023-01-06T06:22:25.102Z,54.98
2023-01-06T06:23:25.113Z,53.95
2023-01-06T06:24:25.167Z,56.86
2023-01-06T06:25:25.070Z,62.79
2023-01-06T06:26:25.065Z,57.13
2023-01-06T06:27:25.052Z,57.93
2023-01-06T06:28:25.087Z,55.67
2023-01-06T06:29:25.036Z,55.70
2023-01-06T06:30:25.028Z,55.61
2023-01-06T06:31:25.079Z,54.88
2023-01-06T06:32:25.015Z,53.65
2023-01-06T06:33:25.040Z,56.49
2023-01-06T06:34:24.997Z,51.47
2023-01-06T06:35:24.992Z,58.38
2023-01-06T06:36:24.999Z,56.22
2023-01-06T06:37:24.980Z,61.33
2023-01-06T06:38:25.019Z,56.62
2023-01-06T06:39:24.998Z,60.44
2023-01-06T06:40:25.330Z,59.73
2023-01-06T06:41:24.941Z,56.49
2023-01-06T06:42:24.938Z,59.10
2023-01-06T06:43:24.928Z,56.56
2023-01-06T06:44:24.942Z,55.65
2023-01-06T06:45:24.910Z,58.88
2023-01-06T06:46:24.902Z,61.28
2023-01-06T06:47:24.896Z,55.40
2023-01-06T06:48:24.898Z,56.58
2023-01-06T06:49:24.904Z,57.66
2023-01-06T06:50:24.877Z,59.14
2023-01-06T06:51:24.866Z,55.20
2023-01-06T06:52:24.856Z,57.37
2023-01-06T06:53:24.850Z,57.71
2023-01-06T06:54:24.865Z,59.42
2023-01-06T06:55:24.837Z,57.92
2023-01-06T06:56:24.898Z,59.24
2023-01-06T06:57:24.810Z,58.04
2023-01-06T06:58:24.797Z,54.54
2023-01-06T06:59:25.821Z,58.50
2023-01-06T07:00:24.799Z,56.25
2023-01-06T07:01:24.862Z,58.96
2023-01-06T07:02:24.809Z,56.38
2023-01-06T07:03:24.768Z,59.03
2023-01-06T07:04:24.813Z,60.46
2023-01-06T07:05:24.754Z,57.66
2023-01-06T07:06:26.124Z,58.24
2023-01-06T07:07:24.734Z,55.80
2023-01-06T07:08:24.724Z,55.33
2023-01-06T07:09:24.746Z,57.44
2023-01-06T07:10:24.704Z,59.26
2023-01-06T07:11:24.702Z,55.89
2023-01-06T07:12:24.790Z,58.63
2023-01-06T07:13:24.686Z,55.56
2023-01-06T07:14:24.716Z,58.84
2023-01-06T07:15:24.673Z,55.38
2023-01-06T07:16:24.664Z,57.67
2023-01-06T07:17:24.656Z,59.75
2023-01-06T07:18:24.645Z,56.07
2023-01-06T07:19:24.663Z,59.99
2023-01-06T07:20:24.635Z,57.38
2023-01-06T07:21:24.629Z,57.94
2023-01-06T07:22:24.626Z,52.39
2023-01-06T07:23:24.622Z,53.26
2023-01-06T07:24:24.638Z,55.05
2023-01-06T07:25:24.610Z,59.95
2023-01-06T07:26:24.589Z,59.81
2023-01-06T07:27:24.579Z,52.20
2023-01-06T07:28:24.661Z,55.30
2023-01-06T07:29:24.608Z,60.38
2023-01-06T07:30:24.554Z,58.85
2023-01-06T07:31:24.606Z,57.03
2023-01-06T07:32:24.539Z,53.81
2023-01-06T07:33:24.538Z,60.70
2023-01-06T07:34:24.547Z,56.71
2023-01-06T07:35:24.515Z,53.93
2023-01-06T07:36:24.508Z,58.33
2023-01-06T07:37:24.507Z,56.97
2023-01-06T07:38:24.486Z,60.44
2023-01-06T07:39:24.514Z,59.70
2023-01-06T07:40:24.472Z,58.82
2023-01-06T07:41:24.466Z,60.40
2023-01-06T07:42:24.458Z,56.20
2023-01-06T07:43:24.468Z,56.60
2023-01-06T07:44:24.560Z,60.37
2023-01-06T07:45:24.462Z,60.86
2023-01-06T07:46:24.492Z,59.60
2023-01-06T07:47:24.419Z,59.16
2023-01-06T07:48:24.435Z,59.21
2023-01-06T07:49:24.428Z,62.10
2023-01-06T07:50:26.337Z,59.19
2023-01-06T07:51:24.396Z,58.79
2023-01-06T07:52:24.413Z,57.49
2023-01-06T07:53:24.398Z,59.41
2023-01-06T07:54:24.395Z,56.76
2023-01-06T07:55:24.349Z,58.91
2023-01-06T07:56:24.350Z,59.80
2023-01-06T07:57:24.337Z,56.76
2023-01-06T07:58:24.352Z,58.18
2023-01-06T07:59:24.348Z,57.68
2023-01-06T08:00:24.389Z,58.11
2023-01-06T08:01:24.418Z,56.73
2023-01-06T08:02:24.364Z,59.02
2023-01-06T08:03:24.356Z,56.70
2023-01-06T08:04:24.294Z,57.33
2023-01-06T08:05:24.316Z,54.91
2023-01-06T08:06:24.271Z,57.66
2023-01-06T08:07:24.269Z,51.70
2023-01-06T08:08:24.251Z,60.32
2023-01-06T08:09:24.241Z,61.69
2023-01-06T08:10:24.259Z,56.03
2023-01-06T08:11:24.234Z,57.00
2023-01-06T08:12:24.220Z,54.87
2023-01-06T08:13:24.205Z,60.50
2023-01-06T08:14:25.203Z,59.50
2023-01-06T08:15:24.368Z,56.37
2023-01-06T08:16:24.265Z,56.64
2023-01-06T08:17:24.175Z,60.97
2023-01-06T08:18:24.173Z,57.84
2023-01-06T08:19:24.191Z,54.82
2023-01-06T08:20:24.187Z,53.95
2023-01-06T08:21:24.155Z,55.69
2023-01-06T08:22:24.144Z,61.23
2023-01-06T08:23:24.144Z,58.11
2023-01-06T08:24:24.144Z,55.67
2023-01-06T08:25:24.150Z,59.20
2023-01-06T08:26:24.121Z,60.59
2023-01-06T08:27:24.130Z,58.30
2023-01-06T08:28:24.098Z,56.41
2023-01-06T08:29:24.112Z,55.69
2023-01-06T08:30:24.107Z,59.29
2023-01-06T08:31:24.114Z,60.62
2023-01-06T08:32:24.147Z,60.87
2023-01-06T08:33:24.073Z,58.12
2023-01-06T08:34:24.058Z,60.13
2023-01-06T08:35:24.072Z,59.35
2023-01-06T08:36:24.042Z,57.97
2023-01-06T08:37:24.028Z,57.65
2023-01-06T08:38:24.031Z,60.37
2023-01-06T08:39:24.014Z,57.04
2023-01-06T08:40:24.037Z,58.84
2023-01-06T08:41:24.001Z,61.76
2023-01-06T08:42:23.989Z,59.60
2023-01-06T08:43:23.986Z,58.01
2023-01-06T08:44:24.007Z,58.00
2023-01-06T08:45:24.006Z,59.05
2023-01-06T08:46:23.986Z,57.36
2023-01-06T08:47:23.984Z,60.46
2023-01-06T08:48:24.011Z,61.13
2023-01-06T08:49:23.951Z,59.88
2023-01-06T08:50:25.847Z,57.31
2023-01-06T08:51:23.988Z,56.27
2023-01-06T08:52:23.905Z,54.66
2023-01-06T08:53:23.904Z,60.66
2023-01-06T08:54:23.899Z,56.17
2023-01-06T08:55:24.005Z,57.58
2023-01-06T08:56:23.883Z,59.51
2023-01-06T08:57:23.873Z,56.82
2023-01-06T08:58:23.865Z,62.82
2023-01-06T08:59:23.882Z,59.70
2023-01-06T09:00:23.842Z,56.33
2023-01-06T09:01:23.927Z,57.64
2023-01-06T09:02:23.920Z,56.82
2023-01-06T09:03:23.832Z,55.93
2023-01-06T09:04:23.918Z,55.71
2023-01-06T09:05:23.811Z,58.86
2023-01-06T09:06:23.804Z,59.78
2023-01-06T09:07:23.808Z,60.83
2023-01-06T09:08:23.784Z,61.08
2023-01-06T09:09:23.800Z,56.95
2023-01-06T09:10:23.823Z,59.56
2023-01-06T09:11:23.769Z,56.24
2023-01-06T09:12:23.759Z,55.70
2023-01-06T09:13:23.751Z,62.56
2023-01-06T09:14:23.757Z,57.89
2023-01-06T09:15:24.728Z,58.41
2023-01-06T09:16:23.800Z,56.23
2023-01-06T09:17:23.726Z,59.11
2023-01-06T09:18:23.716Z,58.06
2023-01-06T09:19:23.745Z,55.83
2023-01-06T09:20:23.775Z,56.62
2023-01-06T09:21:23.686Z,58.17
2023-01-06T09:22:23.705Z,57.22
2023-01-06T09:23:23.709Z,59.45
2023-01-06T09:24:23.676Z,57.82
2023-01-06T09:25:23.678Z,57.50
2023-01-06T09:26:23.641Z,56.15
2023-01-06T09:27:23.630Z,53.95
2023-01-06T09:28:23.631Z,53.63
2023-01-06T09:29:23.617Z,58.81
2023-01-06T09:30:23.672Z,58.33
2023-01-06T09:31:23.632Z,58.51
2023-01-06T09:32:23.590Z,56.82
2023-01-06T09:33:23.596Z,59.18
2023-01-06T09:34:23.574Z,59.27
2023-01-06T09:35:23.595Z,55.70
2023-01-06T09:36:23.642Z,53.09
2023-01-06T09:37:23.559Z,53.33
2023-01-06T09:38:23.548Z,59.52
2023-01-06T09:39:23.547Z,57.68
2023-01-06T09:40:23.551Z,54.92
2023-01-06T09:41:23.524Z,56.74
2023-01-06T09:42:23.512Z,56.77
2023-01-06T09:43:23.514Z,52.48
2023-01-06T09:44:24.751Z,59.68
2023-01-06T09:45:24.519Z,58.12
2023-01-06T09:46:23.515Z,58.12
2023-01-06T09:47:23.478Z,57.89
2023-01-06T09:48:23.473Z,56.66
2023-01-06T09:49:23.458Z,58.13
2023-01-06T09:50:23.476Z,56.06
2023-01-06T09:51:23.452Z,54.69
2023-01-06T09:52:23.516Z,58.98
2023-01-06T09:53:23.427Z,56.75
2023-01-06T09:54:23.427Z,53.04
2023-01-06T09:55:23.442Z,56.02
2023-01-06T09:56:23.422Z,55.12
2023-01-06T09:57:23.402Z,57.92
2023-01-06T09:58:23.394Z,59.28
2023-01-06T09:59:23.385Z,57.71
2023-01-06T10:00:23.402Z,56.30
2023-01-06T10:01:23.436Z,56.51
2023-01-06T10:02:23.400Z,57.29
2023-01-06T10:03:23.352Z,56.60
2023-01-06T10:04:23.348Z,57.65
2023-01-06T10:05:23.371Z,54.15
2023-01-06T10:06:23.340Z,60.12
2023-01-06T10:07:23.316Z,57.41
2023-01-06T10:08:23.380Z,54.61
2023-01-06T10:09:23.301Z,59.04
2023-01-06T10:10:23.398Z,58.25
2023-01-06T10:11:23.292Z,55.15
2023-01-06T10:12:23.305Z,56.25
2023-01-06T10:13:23.277Z,56.86
2023-01-06T10:14:23.268Z,56.82
2023-01-06T10:15:23.279Z,58.63
2023-01-06T10:16:23.299Z,58.87
2023-01-06T10:17:23.243Z,58.60
2023-01-06T10:18:23.235Z,56.75
2023-01-06T10:19:23.246Z,59.14
2023-01-06T10:20:23.263Z,56.89
2023-01-06T10:21:23.219Z,54.43
2023-01-06T10:22:23.203Z,58.53
2023-01-06T10:23:23.199Z,56.83
2023-01-06T10:24:23.280Z,57.64
2023-01-06T10:25:23.199Z,57.21
2023-01-06T10:26:23.175Z,56.84
2023-01-06T10:27:23.161Z,55.73
2023-01-06T10:28:23.154Z,55.60
2023-01-06T10:29:23.146Z,56.80
2023-01-06T10:30:24.861Z,56.74
2023-01-06T10:31:23.244Z,57.95
2023-01-06T10:32:23.127Z,55.49
2023-01-06T10:33:23.125Z,58.54
2023-01-06T10:34:23.116Z,56.04
2023-01-06T10:35:23.103Z,57.00
2023-01-06T10:36:23.116Z,55.62
2023-01-06T10:37:23.124Z,56.51
2023-01-06T10:38:23.088Z,56.45
2023-01-06T10:39:23.072Z,61.76
2023-01-06T10:40:23.169Z,55.82
2023-01-06T10:41:23.080Z,57.00
2023-01-06T10:42:23.067Z,55.05
2023-01-06T10:43:23.039Z,57.45
2023-01-06T10:44:23.032Z,61.64
2023-01-06T10:45:23.610Z,54.84
2023-01-06T10:46:24.067Z,56.50
2023-01-06T10:47:23.007Z,58.52
2023-01-06T10:48:23.001Z,56.41
2023-01-06T10:49:23.025Z,55.63
2023-01-06T10:50:22.988Z,56.71
2023-01-06T10:51:22.999Z,59.25
2023-01-06T10:52:22.969Z,55.98
2023-01-06T10:53:22.962Z,55.27
2023-01-06T10:54:22.954Z,57.87
2023-01-06T10:55:22.944Z,59.14
2023-01-06T10:56:23.041Z,56.70
2023-01-06T10:57:22.926Z,56.65
2023-01-06T10:58:22.937Z,56.22
2023-01-06T10:59:22.924Z,59.34
2023-01-06T11:00:22.905Z,56.99
2023-01-06T11:01:23.009Z,57.99
2023-01-06T11:02:23.108Z,54.24
2023-01-06T11:03:33.154Z,59.52
2023-01-06T11:04:24.873Z,58.06
2023-01-06T11:05:22.873Z,58.48
2023-01-06T11:06:22.861Z,57.62
2023-01-06T11:07:23.047Z,57.16
2023-01-06T11:08:22.848Z,56.23
2023-01-06T11:09:22.843Z,53.71
2023-01-06T11:10:22.829Z,55.70
2023-01-06T11:11:28.640Z,60.98
2023-01-06T11:12:24.912Z,57.13
2023-01-06T11:13:22.804Z,57.63
2023-01-06T11:14:22.797Z,57.24
2023-01-06T11:15:22.796Z,58.25
2023-01-06T11:16:22.805Z,56.55
2023-01-06T11:17:22.992Z,56.94
2023-01-06T11:18:22.768Z,55.95
2023-01-06T11:19:22.757Z,54.93
2023-01-06T11:20:22.760Z,57.65
2023-01-06T11:21:22.746Z,58.46
2023-01-06T11:22:22.999Z,59.72
2023-01-06T11:23:22.727Z,56.74
2023-01-06T11:24:22.726Z,60.02
2023-01-06T11:25:22.720Z,55.86
2023-01-06T11:26:22.705Z,57.66
2023-01-06T11:27:22.995Z,56.56
2023-01-06T11:28:22.792Z,52.55
2023-01-06T11:29:22.679Z,54.22
2023-01-06T11:30:22.678Z,57.04
2023-01-06T11:31:22.713Z,58.21
2023-01-06T11:32:22.996Z,58.52
2023-01-06T11:33:22.662Z,54.26
2023-01-06T11:34:22.647Z,52.60
2023-01-06T11:35:22.647Z,55.95
2023-01-06T11:36:22.640Z,56.26
2023-01-06T11:37:22.648Z,56.56
2023-01-06T11:38:22.620Z,54.64
2023-01-06T11:39:22.606Z,55.67
2023-01-06T11:40:22.597Z,55.41
2023-01-06T11:41:22.619Z,58.71
2023-01-06T11:42:22.610Z,60.30
2023-01-06T11:43:22.579Z,54.45
2023-01-06T11:44:22.644Z,56.28
2023-01-06T11:45:22.564Z,56.77
2023-01-06T11:46:22.555Z,59.36
2023-01-06T11:47:22.577Z,55.88
2023-01-06T11:48:22.585Z,60.40
2023-01-06T11:49:22.534Z,56.61
2023-01-06T11:50:22.527Z,59.84
2023-01-06T11:51:22.545Z,56.02
2023-01-06T11:52:22.546Z,60.45
2023-01-06T11:53:22.500Z,57.16
2023-01-06T11:54:22.490Z,57.63
2023-01-06T11:55:22.481Z,54.12
2023-01-06T11:56:22.475Z,54.82
2023-01-06T11:57:22.521Z,57.35
2023-01-06T11:58:22.463Z,57.36
2023-01-06T11:59:22.457Z,57.34
2023-01-06T12:00:22.527Z,58.25
2023-01-06T12:01:22.480Z,61.36
2023-01-06T12:02:22.589Z,60.69
2023-01-06T12:03:22.483Z,59.31
2023-01-06T12:04:22.413Z,58.64
2023-01-06T12:05:22.406Z,60.09
2023-01-06T12:06:22.406Z,57.84
2023-01-06T12:07:22.427Z,56.27
2023-01-06T12:08:22.383Z,57.02
2023-01-06T12:09:22.379Z,59.23
2023-01-06T12:10:22.372Z,58.26
2023-01-06T12:11:22.360Z,57.73
2023-01-06T12:12:22.378Z,57.67
2023-01-06T12:13:22.356Z,55.23
2023-01-06T12:14:29.990Z,60.55
2023-01-06T12:15:24.333Z,62.03
2023-01-06T12:16:22.495Z,61.81
2023-01-06T12:17:22.451Z,59.43
2023-01-06T12:18:22.310Z,60.90
2023-01-06T12:19:22.298Z,59.26
2023-01-06T12:20:22.313Z,56.76
2023-01-06T12:21:22.281Z,60.31
2023-01-06T12:22:22.306Z,57.53
2023-01-06T12:23:22.267Z,57.34
2023-01-06T12:24:22.260Z,56.39
2023-01-06T12:25:22.256Z,57.52
2023-01-06T12:26:23.754Z,54.82
2023-01-06T12:27:22.269Z,58.65
2023-01-06T12:28:22.243Z,57.97
2023-01-06T12:29:22.238Z,60.95
2023-01-06T12:30:22.213Z,59.15
2023-01-06T12:31:22.211Z,56.66
2023-01-06T12:32:22.298Z,55.94
2023-01-06T12:33:22.184Z,60.57
2023-01-06T12:34:22.180Z,58.50
2023-01-06T12:35:22.175Z,60.23
2023-01-06T12:36:22.164Z,57.90
2023-01-06T12:37:22.148Z,54.34
2023-01-06T12:38:22.184Z,57.73
2023-01-06T12:39:22.137Z,58.78
2023-01-06T12:40:22.125Z,57.52
2023-01-06T12:41:22.124Z,57.39
2023-01-06T12:42:22.151Z,56.46
2023-01-06T12:43:22.130Z,56.03
2023-01-06T12:44:22.118Z,60.84
2023-01-06T12:45:22.087Z,59.37
2023-01-06T12:46:22.100Z,58.42
2023-01-06T12:47:22.100Z,58.03
2023-01-06T12:48:22.137Z,57.88
2023-01-06T12:49:22.060Z,57.76
2023-01-06T12:50:22.046Z,59.56
2023-01-06T12:51:22.038Z,58.41
2023-01-06T12:52:22.065Z,57.64